createdAt,value
2018-02-23T00:00:15.144Z,73.58
2018-02-23T00:01:15.637Z,73.49
2018-02-23T00:03:11.557Z,73.21
2018-02-23T00:04:11.539Z,72.92
2018-02-23T00:06:07.456Z,73.21
2018-02-23T00:07:07.449Z,73.30
2018-02-23T00:09:02.861Z,73.96
2018-02-23T00:10:02.846Z,74.15
2018-02-23T00:11:59.293Z,74.43
2018-02-23T00:12:58.738Z,74.62
2018-02-23T00:14:54.683Z,75.28
2018-02-23T00:15:54.660Z,75.09
2018-02-23T00:17:51.117Z,75.09
2018-02-23T00:18:50.582Z,75.00
2018-02-23T00:20:47.518Z,75.38
2018-02-23T00:21:46.507Z,75.19
2018-02-23T00:23:42.966Z,74.53
2018-02-23T00:24:42.397Z,75.09
2018-02-23T00:26:38.338Z,75.09
2018-02-23T00:27:38.314Z,74.71
2018-02-23T00:29:34.260Z,75.57
2018-02-23T00:30:34.769Z,75.09
2018-02-23T00:32:31.661Z,75.00
2018-02-23T00:33:31.129Z,74.53
2018-02-23T00:35:27.088Z,75.28
2018-02-23T00:36:27.053Z,75.00
2018-02-23T00:38:22.925Z,75.09
2018-02-23T00:39:22.914Z,75.00
2018-02-23T00:41:19.370Z,75.28
2018-02-23T00:42:18.806Z,75.19
2018-02-23T00:44:15.774Z,75.09
2018-02-23T00:45:14.708Z,75.38
2018-02-23T00:47:10.633Z,73.86
2018-02-23T00:48:10.622Z,73.77
2018-02-23T00:50:06.521Z,73.86
2018-02-23T00:51:06.521Z,73.11
2018-02-23T00:53:02.959Z,74.53
2018-02-23T00:54:02.965Z,75.09
2018-02-23T00:55:58.356Z,75.19
2018-02-23T00:56:58.358Z,75.19
2018-02-23T00:58:54.797Z,75.38
2018-02-23T00:59:54.794Z,75.85
2018-02-23T01:01:50.669Z,76.04
2018-02-23T01:02:50.150Z,75.85
2018-02-23T01:04:46.132Z,75.57
2018-02-23T01:05:46.581Z,76.04
2018-02-23T01:07:42.003Z,76.23
2018-02-23T01:08:41.976Z,76.51
2018-02-23T01:10:38.926Z,76.51
2018-02-23T01:11:37.900Z,75.66
2018-02-23T01:13:33.819Z,74.71
2018-02-23T01:14:33.838Z,74.71
2018-02-23T01:16:31.763Z,74.53
2018-02-23T01:17:31.718Z,73.30
2018-02-23T01:19:27.615Z,72.92
2018-02-23T01:20:27.602Z,72.92
2018-02-23T01:22:23.527Z,73.86
2018-02-23T01:23:23.520Z,74.15
2018-02-23T01:25:19.968Z,74.90
2018-02-23T01:26:19.418Z,75.00
2018-02-23T01:28:15.308Z,75.19
2018-02-23T01:29:15.287Z,75.09
2018-02-23T01:31:11.723Z,75.28
2018-02-23T01:32:11.193Z,75.38
2018-02-23T01:34:07.115Z,75.85
2018-02-23T01:35:07.119Z,74.34
2018-02-23T01:37:03.079Z,73.96
2018-02-23T01:38:03.034Z,74.43
2018-02-23T01:39:58.983Z,74.81
2018-02-23T01:40:58.946Z,75.19
2018-02-23T01:42:55.407Z,75.28
2018-02-23T01:45:53.304Z,75.19
2018-02-23T01:46:52.748Z,73.96
2018-02-23T01:48:50.669Z,74.15
2018-02-23T01:49:50.637Z,74.34
2018-02-23T01:51:48.533Z,72.55
2018-02-23T01:52:48.565Z,72.64
2018-02-23T01:54:44.485Z,72.92
2018-02-23T01:55:44.459Z,73.49
2018-02-23T01:57:41.388Z,74.43
2018-02-23T01:58:40.365Z,74.43
2018-02-23T02:00:38.283Z,74.71
2018-02-23T02:01:36.272Z,75.19
2018-02-23T02:03:32.709Z,75.28
2018-02-23T02:04:32.176Z,74.81
2018-02-23T02:06:28.108Z,74.62
2018-02-23T02:07:28.147Z,75.19
2018-02-23T02:09:24.039Z,75.19
2018-02-23T02:10:24.012Z,75.95
2018-02-23T02:12:19.923Z,75.95
2018-02-23T02:13:20.450Z,76.51
2018-02-23T02:15:17.949Z,76.32
2018-02-23T02:16:17.946Z,76.19
2018-02-23T02:18:13.868Z,76.42
2018-02-23T02:19:13.816Z,75.85
2018-02-23T02:21:11.260Z,73.86
2018-02-23T02:22:10.260Z,73.02
2018-02-23T02:24:05.679Z,73.11
2018-02-23T02:25:05.618Z,73.21
2018-02-23T02:27:03.065Z,73.77
2018-02-23T02:28:01.558Z,74.15
2018-02-23T02:29:57.441Z,74.53
2018-02-23T02:30:57.448Z,75.00
2018-02-23T02:32:53.875Z,73.39
2018-02-23T02:33:53.353Z,73.58
2018-02-23T02:35:49.306Z,72.83
2018-02-23T02:36:49.796Z,71.60
2018-02-23T02:38:45.705Z,73.11
2018-02-23T02:39:45.141Z,72.92
2018-02-23T02:41:41.576Z,73.49
2018-02-23T02:42:41.054Z,73.96
2018-02-23T02:44:37.507Z,73.49
2018-02-23T02:45:36.986Z,72.55
2018-02-23T02:47:32.927Z,72.17
2018-02-23T02:48:32.880Z,72.92
2018-02-23T02:50:29.366Z,73.77
2018-02-23T02:51:28.789Z,73.68
2018-02-23T02:53:24.721Z,73.02
2018-02-23T02:54:24.715Z,73.11
2018-02-23T02:56:21.181Z,73.21
2018-02-23T02:57:20.620Z,73.68
2018-02-23T02:59:17.057Z,73.30
2018-02-23T03:00:16.515Z,73.39
2018-02-23T03:02:12.437Z,73.96
2018-02-23T03:03:12.438Z,74.15
2018-02-23T03:05:08.876Z,74.62
2018-02-23T03:06:08.861Z,74.90
2018-02-23T03:08:04.436Z,74.43
2018-02-23T03:09:04.802Z,73.86
2018-02-23T03:11:00.182Z,73.86
2018-02-23T03:12:00.119Z,73.21
2018-02-23T03:13:56.027Z,73.86
2018-02-23T03:14:56.014Z,74.05
2018-02-23T03:16:52.962Z,74.53
2018-02-23T03:17:51.965Z,74.81
2018-02-23T03:19:47.932Z,75.28
2018-02-23T03:20:47.870Z,75.38
2018-02-23T03:22:43.806Z,75.47
2018-02-23T03:23:43.788Z,75.57
2018-02-23T03:25:40.721Z,76.00
2018-02-23T03:26:39.706Z,76.00
2018-02-23T03:28:36.148Z,76.47
2018-02-23T03:29:35.589Z,77.04
2018-02-23T03:31:32.033Z,76.38
2018-02-23T03:32:31.490Z,76.38
2018-02-23T03:34:29.463Z,76.85
2018-02-23T03:35:29.416Z,76.85
2018-02-23T03:37:25.851Z,77.42
2018-02-23T03:38:25.825Z,77.42
2018-02-23T03:40:21.742Z,77.32
2018-02-23T03:41:22.163Z,77.42
2018-02-23T03:43:17.162Z,77.04
2018-02-23T03:44:17.124Z,77.32
2018-02-23T03:46:13.580Z,77.98
2018-02-23T03:47:13.566Z,78.08
2018-02-23T03:49:08.935Z,77.98
2018-02-23T03:50:08.932Z,77.98
2018-02-23T03:52:05.376Z,77.80
2018-02-23T03:53:04.852Z,77.98
2018-02-23T03:55:01.282Z,78.36
2018-02-23T03:56:00.733Z,77.61
2018-02-23T03:57:57.176Z,77.98
2018-02-23T03:58:56.609Z,77.70
2018-02-23T04:00:54.529Z,77.80
2018-02-23T04:01:54.518Z,77.80
2018-02-23T04:03:51.471Z,77.89
2018-02-23T04:04:50.429Z,77.80
2018-02-23T04:06:46.375Z,77.89
2018-02-23T04:07:46.879Z,77.80
2018-02-23T04:09:44.787Z,77.89
2018-02-23T04:10:44.258Z,77.89
2018-02-23T04:12:42.178Z,78.36
2018-02-23T04:13:42.680Z,78.27
2018-02-23T04:15:38.108Z,78.17
2018-02-23T04:16:38.584Z,79.02
2018-02-23T04:18:34.002Z,78.74
2018-02-23T04:19:34.001Z,79.21
2018-02-23T04:21:31.385Z,79.40
2018-02-23T04:22:30.377Z,79.11
2018-02-23T04:24:28.712Z,79.21
2018-02-23T04:25:27.773Z,79.40
2018-02-23T04:27:23.732Z,78.74
2018-02-23T04:28:23.679Z,79.02
2018-02-23T04:30:20.126Z,78.36
2018-02-23T04:31:19.582Z,78.27
2018-02-23T04:33:16.517Z,78.45
2018-02-23T04:34:15.501Z,78.45
2018-02-23T04:36:11.432Z,79.11
2018-02-23T04:37:11.418Z,79.02
2018-02-23T04:39:07.858Z,79.02
2018-02-23T04:40:07.339Z,78.92
2018-02-23T04:42:03.794Z,79.02
2018-02-23T04:43:03.243Z,78.83
2018-02-23T04:44:59.682Z,79.02
2018-02-23T04:45:59.151Z,79.02
2018-02-23T04:47:55.114Z,79.02
2018-02-23T04:48:55.092Z,78.92
2018-02-23T04:50:51.055Z,79.02
2018-02-23T04:51:51.013Z,78.74
2018-02-23T04:53:49.476Z,78.92
2018-02-23T04:54:49.946Z,78.92
2018-02-23T04:56:45.461Z,78.45
2018-02-23T04:57:44.918Z,78.17
2018-02-23T04:59:40.818Z,78.45
2018-02-23T05:00:40.814Z,78.45
2018-02-23T05:02:37.265Z,78.36
2018-02-23T05:03:36.761Z,78.36
2018-02-23T05:05:33.182Z,78.55
2018-02-23T05:06:32.652Z,78.36
2018-02-23T05:08:29.083Z,78.45
2018-02-23T05:09:28.524Z,78.36
2018-02-23T05:11:24.961Z,77.70
2018-02-23T05:12:24.418Z,77.80
2018-02-23T05:14:20.349Z,77.98
2018-02-23T05:15:20.318Z,78.17
2018-02-23T05:17:17.761Z,77.08
2018-02-23T05:18:16.222Z,76.51
2018-02-23T05:20:12.151Z,76.61
2018-02-23T05:21:12.121Z,76.51
2018-02-23T05:23:08.097Z,76.61
2018-02-23T05:24:08.033Z,76.95
2018-02-23T05:26:03.985Z,77.55
2018-02-23T05:27:03.932Z,77.55
2018-02-23T05:28:59.901Z,77.45
2018-02-23T05:30:00.370Z,76.98
2018-02-23T05:31:55.807Z,76.95
2018-02-23T05:32:57.221Z,76.32
2018-02-23T05:34:51.721Z,75.66
2018-02-23T05:35:51.670Z,76.14
2018-02-23T05:37:49.686Z,76.23
2018-02-23T05:38:49.696Z,76.70
2018-02-23T05:40:46.123Z,75.47
2018-02-23T05:41:45.635Z,75.09
2018-02-23T05:43:42.554Z,75.28
2018-02-23T05:44:41.525Z,75.28
2018-02-23T05:46:37.431Z,75.00
2018-02-23T05:47:37.958Z,74.90
2018-02-23T05:49:35.458Z,75.19
2018-02-23T05:50:35.457Z,75.28
2018-02-23T05:52:31.359Z,75.76
2018-02-23T05:53:31.354Z,75.66
2018-02-23T05:55:27.287Z,75.66
2018-02-23T05:56:27.271Z,76.14
2018-02-23T05:58:23.161Z,75.09
2018-02-23T05:59:23.192Z,75.19
2018-02-23T06:01:19.095Z,75.62
2018-02-23T06:02:19.603Z,75.28
2018-02-23T06:04:15.035Z,74.71
2018-02-23T06:05:15.014Z,74.90
2018-02-23T06:07:10.954Z,75.00
2018-02-23T06:08:10.947Z,75.19
2018-02-23T06:10:08.874Z,74.81
2018-02-23T06:11:08.832Z,74.71
2018-02-23T06:13:04.790Z,75.28
2018-02-23T06:14:04.722Z,75.09
2018-02-23T06:16:00.667Z,75.09
2018-02-23T06:17:00.647Z,75.95
2018-02-23T06:18:56.508Z,75.57
2018-02-23T06:19:56.499Z,75.38
2018-02-23T06:21:52.459Z,75.00
2018-02-23T06:22:52.415Z,75.19
2018-02-23T06:24:48.358Z,74.90
2018-02-23T06:25:48.348Z,75.19
2018-02-23T06:27:45.315Z,75.38
2018-02-23T06:28:44.804Z,75.19
2018-02-23T06:30:40.711Z,75.09
2018-02-23T06:31:40.173Z,74.90
2018-02-23T06:33:36.202Z,74.90
2018-02-23T06:34:36.085Z,75.38
2018-02-23T06:36:34.541Z,74.90
2018-02-23T06:37:34.106Z,75.19
2018-02-23T06:39:30.548Z,75.38
2018-02-23T06:40:30.545Z,75.09
2018-02-23T06:42:24.451Z,74.62
2018-02-23T06:43:24.438Z,74.90
2018-02-23T06:45:20.396Z,74.53
2018-02-23T06:46:20.370Z,74.90
2018-02-23T06:48:16.261Z,74.24
2018-02-23T06:49:16.238Z,74.34
2018-02-23T06:51:12.199Z,73.96
2018-02-23T06:52:12.157Z,74.05
2018-02-23T06:54:08.617Z,74.15
2018-02-23T06:55:08.088Z,74.05
2018-02-23T06:57:04.528Z,74.15
2018-02-23T06:58:03.966Z,73.30
2018-02-23T07:00:00.407Z,73.02
2018-02-23T07:00:59.887Z,72.64
2018-02-23T07:02:57.834Z,73.49
2018-02-23T07:03:57.791Z,73.39
2018-02-23T07:05:56.247Z,73.11
2018-02-23T07:06:56.760Z,72.64
2018-02-23T07:08:51.739Z,72.45
2018-02-23T07:09:51.730Z,72.55
2018-02-23T07:11:47.617Z,72.26
2018-02-23T07:12:47.624Z,71.60
2018-02-23T07:14:45.057Z,71.12
2018-02-23T07:15:43.536Z,71.79
2018-02-23T07:17:39.461Z,72.45
2018-02-23T07:18:39.480Z,71.79
2018-02-23T07:20:35.899Z,69.52
2018-02-23T07:21:36.368Z,69.71
2018-02-23T07:23:38.642Z,70.31
2018-02-23T07:24:38.723Z,70.18
2018-02-23T07:26:36.798Z,67.19
2018-02-23T07:27:35.969Z,65.97
2018-02-23T07:29:34.332Z,64.83
2018-02-23T07:30:33.819Z,65.02
2018-02-23T07:32:29.697Z,65.30
2018-02-23T07:33:29.711Z,65.30
2018-02-23T07:35:25.646Z,64.17
2018-02-23T07:36:25.622Z,63.60
2018-02-23T07:38:23.497Z,63.04
2018-02-23T07:39:23.499Z,62.18
2018-02-23T07:41:21.406Z,62.47
2018-02-23T07:42:21.395Z,62.94
2018-02-23T07:44:17.334Z,62.75
2018-02-23T07:45:17.330Z,63.42
2018-02-23T07:47:13.768Z,63.04
2018-02-23T07:48:13.221Z,61.90
2018-02-23T07:50:11.740Z,60.39
2018-02-23T07:51:11.116Z,58.87
2018-02-23T07:53:09.084Z,57.08
2018-02-23T07:54:09.565Z,57.08
2018-02-23T07:56:05.989Z,56.51
2018-02-23T07:57:04.960Z,56.89
2018-02-23T07:59:03.003Z,55.66
2018-02-23T08:00:03.811Z,55.66
2018-02-23T08:02:01.446Z,56.04
2018-02-23T08:03:00.896Z,55.76
2018-02-23T08:04:59.832Z,55.94
2018-02-23T08:05:59.800Z,55.76
2018-02-23T08:07:59.352Z,55.60
2018-02-23T08:08:59.333Z,55.69
2018-02-23T08:10:57.281Z,56.16
2018-02-23T08:11:57.238Z,55.31
2018-02-23T08:13:55.672Z,55.69
2018-02-23T08:14:55.147Z,55.60
2018-02-23T08:16:53.568Z,55.41
2018-02-23T08:17:53.577Z,55.50
2018-02-23T08:19:52.488Z,55.60
2018-02-23T08:20:51.995Z,55.03
2018-02-23T08:22:49.511Z,55.12
2018-02-23T08:23:49.495Z,55.12
2018-02-23T08:25:47.439Z,55.22
2018-02-23T08:26:46.996Z,54.84
2018-02-23T08:28:44.879Z,54.93
2018-02-23T08:29:44.866Z,54.84
2018-02-23T08:31:42.783Z,54.37
2018-02-23T08:32:42.771Z,53.89
2018-02-23T08:34:41.702Z,54.18
2018-02-23T08:35:41.714Z,53.70
2018-02-23T08:37:39.684Z,53.61
2018-02-23T08:38:38.705Z,53.80
2018-02-23T08:40:35.150Z,53.61
2018-02-23T08:41:34.626Z,53.61
2018-02-23T08:43:30.549Z,51.81
2018-02-23T08:44:31.090Z,52.19
2018-02-23T08:46:27.452Z,51.72
2018-02-23T08:47:27.972Z,51.53
2018-02-23T08:49:23.400Z,51.34
2018-02-23T08:50:23.872Z,50.87
2018-02-23T08:52:19.276Z,51.25
2018-02-23T08:53:19.259Z,50.78
2018-02-23T08:55:15.192Z,50.30
2018-02-23T08:56:15.742Z,49.64
2018-02-23T08:58:11.082Z,49.07
2018-02-23T08:59:11.648Z,48.88
2018-02-23T09:01:07.006Z,49.26
2018-02-23T09:02:06.975Z,48.79
2018-02-23T09:04:02.899Z,48.69
2018-02-23T09:05:02.878Z,48.50
2018-02-23T09:06:58.800Z,48.13
2018-02-23T09:07:58.778Z,47.75
2018-02-23T09:09:56.828Z,48.22
2018-02-23T09:10:56.819Z,48.25
2018-02-23T09:12:52.781Z,48.15
2018-02-23T09:13:52.721Z,47.77
2018-02-23T09:15:48.668Z,47.68
2018-02-23T09:16:48.627Z,47.96
2018-02-23T09:18:45.101Z,47.68
2018-02-23T09:19:44.538Z,47.96
2018-02-23T09:21:40.973Z,47.87
2018-02-23T09:22:40.973Z,46.83
2018-02-23T09:24:36.904Z,46.83
2018-02-23T09:25:36.375Z,46.55
2018-02-23T09:27:32.300Z,46.73
2018-02-23T09:28:32.815Z,47.11
2018-02-23T09:30:28.703Z,47.20
2018-02-23T09:31:28.188Z,46.83
2018-02-23T09:33:24.129Z,46.45
2018-02-23T09:34:24.097Z,46.36
2018-02-23T09:36:20.039Z,46.17
2018-02-23T09:37:20.018Z,46.07
2018-02-23T09:39:17.465Z,46.55
2018-02-23T09:40:16.460Z,46.07
2018-02-23T09:42:12.382Z,45.88
2018-02-23T09:43:12.371Z,45.31
2018-02-23T09:45:07.788Z,45.88
2018-02-23T09:46:07.791Z,45.79
2018-02-23T09:48:03.722Z,45.50
2018-02-23T09:49:04.217Z,44.74
2018-02-23T09:51:02.115Z,45.22
2018-02-23T09:52:01.581Z,45.31
2018-02-23T09:53:59.527Z,45.03
2018-02-23T09:55:00.018Z,44.93
2018-02-23T09:56:55.948Z,45.03
2018-02-23T09:57:55.421Z,44.65
2018-02-23T09:59:51.876Z,44.74
2018-02-23T10:00:51.331Z,45.22
2018-02-23T10:02:47.793Z,45.60
2018-02-23T10:03:47.256Z,45.31
2018-02-23T10:05:43.707Z,44.18
2018-02-23T10:06:43.696Z,44.20
2018-02-23T10:08:39.607Z,44.20
2018-02-23T10:09:39.072Z,44.20
2018-02-23T10:11:35.513Z,44.10
2018-02-23T10:12:34.959Z,43.73
2018-02-23T10:14:31.423Z,43.16
2018-02-23T10:15:30.883Z,42.97
2018-02-23T10:17:26.814Z,43.35
2018-02-23T10:18:26.800Z,43.07
2018-02-23T10:20:25.258Z,42.78
2018-02-23T10:21:24.828Z,43.16
2018-02-23T10:23:21.782Z,42.88
2018-02-23T10:24:21.294Z,42.97
2018-02-23T10:26:17.208Z,42.88
2018-02-23T10:27:17.227Z,42.50
2018-02-23T10:29:12.599Z,42.40
2018-02-23T10:30:12.598Z,43.16
2018-02-23T10:32:09.027Z,43.26
2018-02-23T10:33:08.488Z,42.21
2018-02-23T10:35:04.457Z,42.02
2018-02-23T10:36:04.409Z,41.27
2018-02-23T10:38:00.302Z,41.17
2018-02-23T10:39:00.302Z,41.55
2018-02-23T10:40:56.739Z,41.64
2018-02-23T10:41:56.236Z,41.17
2018-02-23T10:43:52.128Z,41.46
2018-02-23T10:44:52.671Z,41.47
2018-02-23T10:46:48.067Z,41.46
2018-02-23T10:47:48.582Z,41.08
2018-02-23T10:49:45.002Z,41.46
2018-02-23T10:50:44.490Z,41.64
2018-02-23T10:52:39.979Z,41.74
2018-02-23T10:53:39.964Z,42.02
2018-02-23T10:55:36.918Z,42.11
2018-02-23T10:56:36.404Z,41.38
2018-02-23T10:58:31.828Z,41.27
2018-02-23T10:59:31.749Z,41.27
2018-02-23T11:01:27.706Z,41.17
2018-02-23T11:02:28.208Z,41.27
2018-02-23T11:04:23.623Z,40.98
2018-02-23T11:05:24.118Z,41.27
2018-02-23T11:07:20.551Z,41.28
2018-02-23T11:08:20.064Z,40.81
2018-02-23T11:10:16.000Z,40.63
2018-02-23T11:11:15.479Z,40.44
2018-02-23T11:13:11.449Z,40.53
2018-02-23T11:14:11.431Z,40.53
2018-02-23T11:16:07.374Z,40.25
2018-02-23T11:17:07.364Z,39.87
2018-02-23T11:19:03.386Z,39.68
2018-02-23T11:20:03.286Z,40.06
2018-02-23T11:21:59.264Z,39.49
2018-02-23T11:22:59.230Z,39.11
2018-02-23T11:24:55.653Z,38.92
2018-02-23T11:27:11.066Z,38.82
2018-02-23T11:28:11.554Z,39.20
2018-02-23T11:30:06.964Z,38.82
2018-02-23T11:31:06.947Z,38.64
2018-02-23T11:33:02.877Z,39.39
2018-02-23T11:34:02.874Z,39.49
2018-02-23T11:35:58.782Z,39.58
2018-02-23T11:36:58.774Z,39.39
2018-02-23T11:38:54.680Z,38.82
2018-02-23T11:39:54.677Z,38.64
2018-02-23T11:41:51.105Z,39.01
2018-02-23T11:42:51.154Z,39.49
2018-02-23T11:44:46.542Z,39.29
2018-02-23T11:45:46.528Z,39.77
2018-02-23T11:47:42.473Z,39.11
2018-02-23T11:48:42.451Z,39.49
2018-02-23T11:50:40.905Z,40.08
2018-02-23T11:51:40.485Z,39.41
2018-02-23T11:53:36.404Z,39.39
2018-02-23T11:54:36.375Z,38.54
2018-02-23T11:56:32.308Z,38.28
2018-02-23T11:57:32.829Z,39.03
2018-02-23T11:59:28.200Z,38.65
2018-02-23T12:00:28.204Z,38.75
2018-02-23T12:02:27.172Z,38.37
2018-02-23T12:03:27.146Z,38.09
2018-02-23T12:05:23.196Z,38.37
2018-02-23T12:06:22.168Z,37.90
2018-02-23T12:08:18.131Z,38.46
2018-02-23T12:09:18.057Z,38.28
2018-02-23T12:11:14.036Z,38.46
2018-02-23T12:12:13.987Z,39.22
2018-02-23T12:14:11.949Z,38.09
2018-02-23T12:15:11.926Z,38.18
2018-02-23T12:17:10.885Z,38.09
2018-02-23T12:18:10.347Z,38.28
2018-02-23T12:20:08.299Z,38.46
2018-02-23T12:21:07.755Z,38.56
2018-02-23T12:23:04.748Z,38.46
2018-02-23T12:24:03.694Z,38.28
2018-02-23T12:25:59.622Z,38.75
2018-02-23T12:26:59.614Z,38.75
2018-02-23T12:28:56.062Z,38.56
2018-02-23T12:29:55.480Z,38.94
2018-02-23T12:31:51.923Z,38.46
2018-02-23T12:32:51.408Z,38.56
2018-02-23T12:34:48.351Z,38.56
2018-02-23T12:35:48.344Z,38.46
2018-02-23T12:37:43.361Z,38.94
2018-02-23T12:38:43.297Z,37.99
2018-02-23T12:40:40.176Z,38.28
2018-02-23T12:41:39.227Z,38.46
2018-02-23T12:43:35.673Z,37.90
2018-02-23T12:44:35.184Z,37.99
2018-02-23T12:46:31.616Z,38.18
2018-02-23T12:47:31.064Z,37.80
2018-02-23T12:49:27.006Z,37.71
2018-02-23T12:50:27.515Z,38.18
2018-02-23T12:52:23.438Z,38.37
2018-02-23T12:53:24.431Z,37.99
2018-02-23T12:55:18.844Z,37.73
2018-02-23T12:56:19.334Z,37.63
2018-02-23T12:58:15.256Z,37.14
2018-02-23T12:59:15.245Z,37.33
2018-02-23T13:01:13.133Z,37.33
2018-02-23T13:02:12.632Z,36.97
2018-02-23T13:04:08.580Z,37.06
2018-02-23T13:05:09.180Z,37.35
2018-02-23T13:07:06.002Z,37.35
2018-02-23T13:08:05.088Z,37.44
2018-02-23T13:10:03.025Z,37.06
2018-02-23T13:11:03.011Z,37.16
2018-02-23T13:12:59.456Z,36.87
2018-02-23T13:13:58.940Z,36.97
2018-02-23T13:15:56.993Z,36.59
2018-02-23T13:16:56.964Z,36.87
2018-02-23T13:18:51.908Z,36.59
2018-02-23T13:19:51.410Z,36.78
2018-02-23T13:21:47.355Z,36.59
2018-02-23T13:22:47.363Z,36.02
2018-02-23T13:24:45.807Z,36.02
2018-02-23T13:25:45.284Z,36.30
2018-02-23T13:27:43.216Z,36.11
2018-02-23T13:28:43.202Z,36.21
2018-02-23T13:30:39.174Z,35.93
2018-02-23T13:31:39.135Z,36.11
2018-02-23T13:33:39.594Z,36.21
2018-02-23T13:34:39.604Z,35.83
2018-02-23T13:36:37.653Z,36.02
2018-02-23T13:37:37.650Z,36.21
2018-02-23T13:39:36.115Z,35.93
2018-02-23T13:40:35.564Z,35.93
2018-02-23T13:42:31.482Z,36.02
2018-02-23T13:43:31.495Z,36.11
2018-02-23T13:45:28.347Z,35.83
2018-02-23T13:46:27.397Z,35.26
2018-02-23T13:48:24.262Z,34.98
2018-02-23T13:49:23.277Z,35.17
2018-02-23T13:51:19.245Z,35.26
2018-02-23T13:52:19.228Z,35.07
2018-02-23T13:54:15.196Z,35.07
2018-02-23T13:55:15.155Z,35.17
2018-02-23T13:57:13.195Z,35.26
2018-02-23T13:58:15.036Z,35.26
2018-02-23T14:00:11.673Z,34.78
2018-02-23T14:01:09.661Z,34.69
2018-02-23T14:03:05.053Z,34.78
2018-02-23T14:04:05.564Z,34.59
2018-02-23T14:06:01.517Z,34.69
2018-02-23T14:07:00.965Z,34.78
2018-02-23T14:08:57.923Z,34.50
2018-02-23T14:09:56.878Z,34.31
2018-02-23T14:11:56.325Z,34.41
2018-02-23T14:12:54.922Z,34.69
2018-02-23T14:14:52.966Z,34.12
2018-02-23T14:15:52.965Z,34.03
2018-02-23T14:17:51.467Z,34.31
2018-02-23T14:18:51.891Z,34.31
2018-02-23T14:20:46.933Z,34.59
2018-02-23T14:21:47.278Z,34.23
2018-02-23T14:23:43.369Z,33.27
2018-02-23T14:24:42.890Z,33.75
2018-02-23T14:26:38.797Z,34.03
2018-02-23T14:27:38.770Z,33.94
2018-02-23T14:29:36.686Z,33.37
2018-02-23T14:30:36.720Z,33.37
2018-02-23T14:32:33.590Z,33.17
2018-02-23T14:33:33.593Z,33.08
2018-02-23T14:35:29.563Z,33.17
2018-02-23T14:36:30.126Z,33.56
2018-02-23T14:38:25.986Z,33.56
2018-02-23T14:39:26.988Z,33.17
2018-02-23T14:41:24.378Z,32.70
2018-02-23T14:42:24.397Z,33.46
2018-02-23T14:44:19.920Z,33.37
2018-02-23T14:45:19.428Z,33.17
2018-02-23T14:47:15.366Z,33.84
2018-02-23T14:48:15.368Z,34.03
2018-02-23T14:50:11.796Z,33.08
2018-02-23T14:51:11.246Z,33.17
2018-02-23T14:53:07.232Z,32.79
2018-02-23T14:54:07.205Z,32.71
2018-02-23T14:56:05.283Z,32.51
2018-02-23T14:57:06.118Z,32.70
2018-02-23T14:59:04.178Z,32.04
2018-02-23T15:00:03.125Z,32.51
2018-02-23T15:02:01.603Z,31.77
2018-02-23T15:03:01.055Z,32.23
2018-02-23T15:04:58.009Z,32.32
2018-02-23T15:05:57.520Z,32.71
2018-02-23T15:07:54.964Z,32.24
2018-02-23T15:08:54.938Z,32.53
2018-02-23T15:10:51.848Z,32.34
2018-02-23T15:11:51.837Z,32.15
2018-02-23T15:13:47.796Z,32.34
2018-02-23T15:14:47.764Z,32.15
2018-02-23T15:16:43.681Z,31.68
2018-02-23T15:17:43.670Z,31.28
2018-02-23T15:19:40.622Z,31.47
2018-02-23T15:20:39.608Z,31.28
2018-02-23T15:22:35.574Z,31.28
2018-02-23T15:23:35.536Z,31.68
2018-02-23T15:25:31.581Z,32.04
2018-02-23T15:26:31.460Z,31.68
2018-02-23T15:28:29.514Z,31.39
2018-02-23T15:29:30.335Z,31.47
2018-02-23T15:31:28.003Z,31.56
2018-02-23T15:32:27.421Z,32.04
2018-02-23T15:34:23.352Z,31.68
2018-02-23T15:35:23.321Z,31.66
2018-02-23T15:37:21.306Z,31.66
2018-02-23T15:38:21.840Z,31.95
2018-02-23T15:40:17.277Z,31.85
2018-02-23T15:41:17.204Z,32.04
2018-02-23T15:43:15.335Z,31.95
2018-02-23T15:44:15.252Z,31.95
2018-02-23T15:46:11.271Z,31.66
2018-02-23T15:47:11.268Z,31.56
2018-02-23T15:49:07.208Z,31.95
2018-02-23T15:50:07.184Z,31.28
2018-02-23T15:52:03.021Z,31.18
2018-02-23T15:53:04.477Z,31.47
2018-02-23T15:54:58.978Z,31.37
2018-02-23T15:55:58.950Z,31.75
2018-02-23T15:57:54.959Z,32.32
2018-02-23T15:58:55.005Z,31.66
2018-02-23T16:00:50.944Z,32.14
2018-02-23T16:01:50.828Z,32.04
2018-02-23T16:03:48.802Z,32.23
2018-02-23T16:04:48.759Z,32.51
2018-02-23T16:06:47.199Z,32.42
2018-02-23T16:07:46.772Z,32.79
2018-02-23T16:09:42.744Z,33.17
2018-02-23T16:10:42.759Z,33.27
2018-02-23T16:12:39.164Z,33.17
2018-02-23T16:13:38.615Z,32.89
2018-02-23T16:15:34.570Z,32.89
2018-02-23T16:16:34.601Z,32.98
2018-02-23T16:18:30.996Z,32.98
2018-02-23T16:19:30.508Z,33.27
2018-02-23T16:21:30.317Z,33.37
2018-02-23T16:22:28.484Z,33.56
2018-02-23T16:24:24.424Z,33.94
2018-02-23T16:25:24.390Z,34.12
2018-02-23T16:27:20.364Z,34.59
2018-02-23T16:28:20.329Z,34.59
2018-02-23T16:30:16.293Z,34.98
2018-02-23T16:31:16.903Z,35.17
2018-02-23T16:33:12.212Z,35.26
2018-02-23T16:34:12.177Z,35.07
2018-02-23T16:36:08.181Z,35.07
2018-02-23T16:37:08.165Z,35.07
2018-02-23T16:39:04.080Z,36.00
2018-02-23T16:40:04.092Z,36.00
2018-02-23T16:42:03.525Z,35.53
2018-02-23T16:43:02.102Z,36.00
2018-02-23T16:44:58.541Z,36.19
2018-02-23T16:45:58.585Z,36.47
2018-02-23T16:47:55.968Z,36.10
2018-02-23T16:48:53.949Z,36.00
2018-02-23T16:50:52.418Z,36.66
2018-02-23T16:51:51.988Z,36.38
2018-02-23T16:53:47.913Z,36.85
2018-02-23T16:54:48.421Z,37.04
2018-02-23T16:56:43.827Z,37.14
2018-02-23T16:57:43.862Z,36.85
2018-02-23T16:59:39.728Z,37.04
2018-02-23T17:00:39.753Z,36.95
2018-02-23T17:02:35.651Z,36.95
2018-02-23T17:03:36.180Z,36.95
2018-02-23T17:05:31.568Z,37.71
2018-02-23T17:06:31.565Z,37.97
2018-02-23T17:08:28.519Z,37.78
2018-02-23T17:09:27.463Z,37.78
2018-02-23T17:11:23.903Z,37.59
2018-02-23T17:12:23.385Z,38.45
2018-02-23T17:14:19.364Z,38.35
2018-02-23T17:15:19.291Z,37.97
2018-02-23T17:17:15.249Z,38.16
2018-02-23T17:18:15.213Z,38.26
2018-02-23T17:20:11.664Z,38.26
2018-02-23T17:21:11.125Z,38.16
2018-02-23T17:23:07.583Z,38.16
2018-02-23T17:24:07.048Z,38.35
2018-02-23T17:26:04.983Z,38.16
2018-02-23T17:27:02.999Z,37.97
2018-02-23T17:28:58.978Z,38.16
2018-02-23T17:29:58.897Z,38.26
2018-02-23T17:31:54.822Z,38.64
2018-02-23T17:32:54.793Z,38.54
2018-02-23T17:34:50.789Z,38.82
2018-02-23T17:35:51.762Z,39.39
2018-02-23T17:37:46.715Z,39.58
2018-02-23T17:38:47.230Z,39.77
2018-02-23T17:40:42.654Z,39.29
2018-02-23T17:41:42.605Z,39.39
2018-02-23T17:43:38.551Z,39.87
2018-02-23T17:44:38.514Z,39.96
2018-02-23T17:46:35.467Z,40.44
2018-02-23T17:47:34.970Z,40.44
2018-02-23T17:49:30.390Z,40.63
2018-02-23T17:50:30.347Z,39.65
2018-02-23T17:52:26.268Z,40.32
2018-02-23T17:53:26.265Z,39.96
2018-02-23T17:55:24.224Z,39.01
2018-02-23T17:56:24.203Z,38.92
2018-02-23T17:58:20.064Z,38.35
2018-02-23T17:59:20.201Z,38.64
2018-02-23T18:01:16.094Z,38.26
2018-02-23T18:02:16.015Z,38.54
2018-02-23T18:04:11.938Z,38.26
2018-02-23T18:05:12.455Z,38.62
2018-02-23T18:07:07.849Z,38.81
2018-02-23T18:08:08.377Z,38.33
2018-02-23T18:10:04.298Z,38.62
2018-02-23T18:11:04.294Z,38.62
2018-02-23T18:13:00.225Z,38.81
2018-02-23T18:13:59.660Z,38.52
2018-02-23T18:15:58.136Z,38.43
2018-02-23T18:18:14.144Z,38.71
2018-02-23T18:19:13.630Z,39.00
2018-02-23T18:21:12.608Z,39.00
2018-02-23T18:22:11.689Z,39.00
2018-02-23T18:24:09.639Z,38.90
2018-02-23T18:25:09.596Z,38.62
2018-02-23T18:27:05.506Z,38.05
2018-02-23T18:28:05.536Z,37.95
2018-02-23T18:30:01.406Z,37.86
2018-02-23T18:31:01.949Z,38.33
2018-02-23T18:32:58.345Z,38.52
2018-02-23T18:33:57.348Z,38.81
2018-02-23T18:35:56.219Z,38.24
2018-02-23T18:36:53.316Z,38.43
2018-02-23T18:38:49.241Z,38.90
2018-02-23T18:39:49.209Z,38.81
2018-02-23T18:41:45.656Z,40.13
2018-02-23T18:42:46.127Z,40.32
2018-02-23T18:44:41.166Z,40.41
2018-02-23T18:45:42.097Z,40.22
2018-02-23T18:47:37.100Z,39.84
2018-02-23T18:48:37.582Z,39.65
2018-02-23T18:50:32.983Z,39.65
2018-02-23T18:51:33.493Z,39.56
2018-02-23T18:53:28.930Z,39.65
2018-02-23T18:54:28.904Z,39.84
2018-02-23T18:56:25.337Z,40.32
2018-02-23T18:57:24.819Z,40.51